Time;durP1;ratioP1;P1;durP2;ratioP2;P2;SDS_P1;SDS_P2;PMS_P1;PMS_P2;Temp;Humidity;BMP_temperature;BMP_pressure;BME280_temperature;BME280_humidity;BME280_pressure;Samples;Min_cycle;Max_cycle;Signal;HPM_P1;HPM_P2
2022/09/06 00:00:29;;;;;;;5.35;4.85;;;;;;;17.22;100.00;101323.16;1969693;28;20022;-66
2022/09/06 00:01:27;;;;;;;6.50;5.40;;;;;;;17.24;100.00;101331.81;1969704;28;20030;-67
2022/09/06 00:02:29;;;;;;;7.20;5.95;;;;;;;17.15;100.00;101337.66;1969642;28;20546;-66
2022/09/06 00:03:27;;;;;;;6.00;5.40;;;;;;;17.16;100.00;101342.00;1967593;28;20026;-66
2022/09/06 00:04:24;;;;;;;6.88;6.07;;;;;;;17.18;100.00;101358.53;1969726;28;20478;-67
2022/09/06 00:05:21;;;;;;;6.90;6.20;;;;;;;17.20;100.00;101377.78;1969801;28;20030;-68
2022/09/06 00:06:19;;;;;;;8.90;5.78;;;;;;;17.16;100.00;101397.38;1969880;28;20029;-68
2022/09/06 00:07:17;;;;;;;6.38;5.72;;;;;;;17.13;100.00;101407.28;1969869;28;20037;-68
2022/09/06 00:08:14;;;;;;;5.75;5.25;;;;;;;17.10;100.00;101413.56;1961344;28;20022;-67
2022/09/06 00:09:12;;;;;;;6.63;5.47;;;;;;;17.07;100.00;101419.03;1961559;28;20449;-66
2022/09/06 00:10:10;;;;;;;6.85;5.32;;;;;;;17.15;100.00;101416.78;1969049;28;20037;-71
2022/09/06 00:11:07;;;;;;;5.85;5.03;;;;;;;17.14;100.00;101415.06;1969840;28;20500;-67
2022/09/06 00:12:05;;;;;;;7.38;5.00;;;;;;;17.22;100.00;101410.19;1969803;28;20036;-69
2022/09/06 00:13:06;;;;;;;6.38;4.82;;;;;;;17.22;100.00;101410.19;1961416;28;20425;-68
2022/09/06 00:14:04;;;;;;;6.70;5.53;;;;;;;17.26;100.00;101410.81;1961579;28;20061;-68
2022/09/06 00:15:03;;;;;;;6.15;5.47;;;;;;;17.25;100.00;101438.97;1968770;28;20076;-67
2022/09/06 00:16:11;;;;;;;6.38;5.07;;;;;;;17.29;100.00;101454.63;1969294;28;20025;-68
2022/09/06 00:17:08;;;;;;;5.38;4.88;;;;;;;17.29;100.00;101457.25;1969501;28;20103;-69
2022/09/06 00:18:07;;;;;;;5.53;4.85;;;;;;;17.41;100.00;101455.69;1969691;28;20029;-66
2022/09/06 00:19:04;;;;;;;6.90;5.20;;;;;;;17.41;100.00;101453.03;1969732;28;20028;-70
2022/09/06 00:20:04;;;;;;;5.60;4.88;;;;;;;17.41;100.00;101453.03;1969776;28;20100;-68
2022/09/06 00:21:11;;;;;;;5.78;5.18;;;;;;;17.40;100.00;101452.19;1969608;28;20416;-69
2022/09/06 00:22:09;;;;;;;6.97;5.38;;;;;;;17.31;100.00;101450.13;1969774;28;20126;-71
2022/09/06 00:23:07;;;;;;;9.38;6.35;;;;;;;17.27;100.00;101456.53;1969690;28;20049;-72
2022/09/06 00:24:05;;;;;;;9.02;5.63;;;;;;;17.22;100.00;101462.94;1961404;28;20053;-71
2022/09/06 00:25:06;;;;;;;7.03;5.95;;;;;;;17.22;100.00;101465.56;1961570;28;20059;-73
2022/09/06 00:26:04;;;;;;;8.05;6.85;;;;;;;17.18;100.00;101469.31;1969374;28;20048;-72
2022/09/06 00:27:07;;;;;;;9.32;6.45;;;;;;;17.14;100.00;101462.53;1969829;28;20477;-72
2022/09/06 00:28:05;;;;;;;10.45;6.78;;;;;;;17.10;100.00;101455.75;1969678;28;20036;-71
2022/09/06 00:29:02;;;;;;;7.47;5.53;;;;;;;17.02;100.00;101445.63;1969642;28;20026;-73
2022/09/06 00:29:59;;;;;;;8.57;6.18;;;;;;;17.01;100.00;101435.19;1961319;28;20494;-72
2022/09/06 00:30:57;;;;;;;7.18;6.47;;;;;;;17.01;100.00;101437.81;1961497;28;20391;-70
2022/09/06 00:31:54;;;;;;;11.32;6.72;;;;;;;16.94;100.00;101440.81;1968770;28;20513;-72
2022/09/06 00:32:52;;;;;;;9.38;7.22;;;;;;;16.96;100.00;101446.84;1968769;28;20433;-73
2022/09/06 00:33:50;;;;;;;11.85;6.82;;;;;;;17.01;100.00;101457.13;1968505;28;20029;-70
2022/09/06 00:34:47;;;;;;;9.65;7.28;;;;;;;16.97;100.00;101460.91;1969130;28;20053;-71
2022/09/06 00:35:46;;;;;;;10.00;6.95;;;;;;;17.00;100.00;101452.78;1969528;28;20133;-75
2022/09/06 00:36:43;;;;;;;9.05;6.82;;;;;;;16.98;100.00;101449.41;1969882;28;20036;-71
2022/09/06 00:37:40;;;;;;;7.40;6.50;;;;;;;16.97;100.00;101445.91;1969575;28;20532;-72
2022/09/06 00:38:39;;;;;;;9.10;6.72;;;;;;;16.99;100.00;101445.81;1961375;28;20513;-71
2022/09/06 00:39:36;;;;;;;7.57;6.78;;;;;;;17.00;100.00;101442.22;1961390;28;20029;-70
2022/09/06 00:40:34;;;;;;;9.52;6.47;;;;;;;17.01;100.00;101440.47;1968840;28;20474;-69
2022/09/06 00:41:31;;;;;;;12.32;7.07;;;;;;;17.04;100.00;101442.91;1969659;28;20628;-72
2022/09/06 00:42:29;;;;;;;9.30;6.40;;;;;;;17.03;100.00;101442.06;1969595;28;20358;-72
2022/09/06 00:43:26;;;;;;;6.57;5.88;;;;;;;17.03;100.00;101446.47;1969671;28;20034;-71
2022/09/06 00:44:24;;;;;;;7.43;6.28;;;;;;;17.03;100.00;101449.09;1969589;28;20448;-71
2022/09/06 00:45:24;;;;;;;8.68;6.55;;;;;;;17.02;100.00;101442.16;1969643;28;20026;-71
2022/09/06 00:46:29;;;;;;;7.60;6.10;;;;;;;17.01;100.00;101441.31;1969504;28;20060;-71
2022/09/06 00:47:28;;;;;;;9.98;6.55;;;;;;;16.99;100.00;101430.88;1969583;28;20056;-70
2022/09/06 00:48:25;;;;;;;6.72;6.07;;;;;;;16.99;100.00;101428.22;1969623;28;20034;-70
2022/09/06 00:49:31;;;;;;;7.72;6.90;;;;;;;16.94;100.00;101427.63;1969595;28;20362;-69
2022/09/06 00:50:28;;;;;;;8.00;7.20;;;;;;;16.82;100.00;101423.09;1969582;28;20040;-69
2022/09/06 00:51:30;;;;;;;9.38;7.75;;;;;;;16.79;100.00;101418.00;1969757;28;20040;-69
2022/09/06 00:52:29;;;;;;;9.77;7.68;;;;;;;16.77;100.00;101417.28;1969555;28;20068;-69
2022/09/06 00:53:27;;;;;;;11.60;8.13;;;;;;;16.70;100.00;101407.09;1969583;28;20087;-69
2022/09/06 00:54:26;;;;;;;10.48;8.40;;;;;;;16.68;100.00;101414.25;1969501;28;20029;-68
2022/09/06 00:55:25;;;;;;;11.63;8.52;;;;;;;16.65;100.00;101403.03;1969616;28;20039;-69
2022/09/06 00:56:24;;;;;;;9.57;8.50;;;;;;;16.60;100.00;101406.78;1961231;28;20117;-68
2022/09/06 00:57:25;;;;;;;11.15;8.60;;;;;;;16.58;100.00;101402.53;1961396;28;20038;-69
2022/09/06 00:58:25;;;;;;;10.23;9.02;;;;;;;16.60;100.00;101403.31;1969603;28;20066;-69
2022/09/06 00:59:27;;;;;;;9.88;8.88;;;;;;;16.62;100.00;101403.22;1969600;28;20381;-68
2022/09/06 01:00:25;;;;;;;10.65;9.30;;;;;;;16.64;100.00;101406.59;1969513;28;20117;-69
2022/09/06 01:01:22;;;;;;;11.00;8.88;;;;;;;16.64;100.00;101407.47;1969164;28;20160;-69
2022/09/06 01:02:20;;;;;;;11.70;8.73;;;;;;;16.63;100.00;101400.47;1969327;28;20053;-69
2022/09/06 01:03:21;;;;;;;11.13;9.70;;;;;;;16.64;100.00;101404.84;1967220;28;20050;-69
2022/09/06 01:04:19;;;;;;;10.75;9.65;;;;;;;16.65;100.00;101403.88;1969571;28;20081;-69
2022/09/06 01:05:17;;;;;;;10.95;9.15;;;;;;;16.65;100.00;101403.88;1969540;28;20022;-68
2022/09/06 01:06:26;;;;;;;12.90;10.15;;;;;;;16.64;100.00;101396.06;1969509;28;20083;-69
2022/09/06 01:07:36;;;;;;;11.18;8.93;;;;;;;16.61;100.00;101391.84;1969508;28;20041;-68
2022/09/06 01:08:54;;;;;;;10.90;9.85;;;;;;;16.62;100.00;101388.25;1969617;28;20119;-69
2022/09/06 01:10:29;;;;;;;10.40;9.27;;;;;;;16.61;100.00;101381.28;1969493;28;20029;-69
2022/09/06 01:11:51;;;;;;;11.63;9.13;;;;;;;16.57;100.00;101380.63;1969527;28;20512;-69
2022/09/06 01:13:25;;;;;;;11.55;9.38;;;;;;;16.53;100.00;101383.53;1969517;28;20048;-69
2022/09/06 01:14:44;;;;;;;12.07;9.88;;;;;;;16.52;100.00;101380.03;1969524;28;20026;-69
2022/09/06 01:15:53;;;;;;;10.68;9.57;;;;;;;16.52;100.00;101371.31;1969461;28;20449;-70
2022/09/06 01:17:02;;;;;;;13.35;10.23;;;;;;;16.48;100.00;101366.22;1969596;28;20018;-69
2022/09/06 01:18:20;;;;;;;10.95;9.82;;;;;;;16.46;100.00;101362.81;1969367;28;20564;-69
2022/09/06 01:19:39;;;;;;;13.25;10.55;;;;;;;16.45;100.00;101355.84;1961160;28;20054;-69
2022/09/06 01:21:13;;;;;;;11.23;10.02;;;;;;;16.46;100.00;101359.34;1963073;28;20033;-69
2022/09/06 01:22:43;;;;;;;14.10;10.32;;;;;;;16.47;100.00;101353.13;1965484;28;20512;-69
2022/09/06 01:24:03;;;;;;;15.77;10.55;;;;;;;16.46;100.00;101346.19;1969519;28;20026;-69
2022/09/06 01:25:42;;;;;;;16.23;10.63;;;;;;;16.51;100.00;101330.94;1961156;28;20109;-69
2022/09/06 01:27:12;;;;;;;17.05;11.02;;;;;;;16.47;100.00;101327.66;1951607;28;20465;-69
2022/09/06 01:28:22;;;;;;;13.43;11.15;;;;;;;16.48;100.00;101318.81;1969461;28;20113;-69
2022/09/06 01:29:52;;;;;;;14.90;11.95;;;;;;;16.49;100.00;101319.63;1969592;28;20034;-69
2022/09/06 01:31:04;;;;;;;13.90;12.02;;;;;;;16.47;100.00;101306.59;1969456;28;20026;-69
2022/09/06 01:32:15;;;;;;;16.67;12.18;;;;;;;16.50;100.00;101297.63;1969343;28;20022;-69
2022/09/06 01:33:31;;;;;;;16.92;11.30;;;;;;;16.48;100.00;101297.72;1967074;28;20037;-69
2022/09/06 01:34:44;;;;;;;14.68;11.90;;;;;;;16.46;100.00;101289.06;1969382;28;20033;-69
2022/09/06 01:36:04;;;;;;;16.65;12.35;;;;;;;16.46;100.00;101283.78;1969516;28;20118;-69
2022/09/06 01:37:11;;;;;;;14.27;11.68;;;;;;;16.50;100.00;101278.34;1969452;28;20030;-69
2022/09/06 01:38:09;;;;;;;16.73;12.73;;;;;;;16.53;100.00;101283.44;1969374;28;20033;-70
2022/09/06 01:39:07;;;;;;;19.50;12.38;;;;;;;16.56;100.00;101277.97;1969470;28;20026;-69
2022/09/06 01:40:06;;;;;;;15.50;11.80;;;;;;;16.61;100.00;101273.28;1969404;28;20032;-69
2022/09/06 01:41:04;;;;;;;16.77;12.27;;;;;;;16.60;100.00;101271.59;1969322;28;20496;-69
2022/09/06 01:42:10;;;;;;;13.77;11.77;;;;;;;16.59;100.00;101268.09;1969429;28;20026;-69
2022/09/06 01:43:16;;;;;;;15.40;11.60;;;;;;;16.59;100.00;101269.88;1969410;28;20033;-70
2022/09/06 01:44:14;;;;;;;14.65;11.52;;;;;;;16.57;100.00;101264.72;1969492;28;20030;-70
2022/09/06 01:45:18;;;;;;;12.70;9.88;;;;;;;16.59;100.00;101246.16;1969307;28;20034;-69
2022/09/06 01:46:59;;;;;;;11.70;10.35;;;;;;;16.61;100.00;101244.28;1970175;28;20029;-69
2022/09/06 01:48:45;;;;;;;11.55;10.35;;;;;;;16.58;100.00;101224.25;1946854;29;20027;-69
2022/09/06 01:49:54;;;;;;;13.68;10.40;;;;;;;16.57;100.00;101221.72;1932033;29;20106;-69
2022/09/06 01:51:31;;;;;;;13.32;10.43;;;;;;;16.60;100.00;101218.91;1970704;28;20044;-69
2022/09/06 01:52:37;;;;;;;12.13;10.82;;;;;;;16.53;100.00;101204.41;1970778;28;20231;-70
2022/09/06 01:54:27;;;;;;;13.77;10.80;;;;;;;16.55;100.00;101197.22;1962378;28;20026;-69
2022/09/06 01:55:47;;;;;;;18.35;10.60;;;;;;;16.52;100.00;101186.91;1969154;28;20030;-69
2022/09/06 01:57:44;;;;;;;14.73;11.43;;;;;;;16.50;100.00;101178.25;1970877;28;20043;-69
2022/09/06 01:59:09;;;;;;;15.25;12.15;;;;;;;16.37;100.00;101180.78;1970841;28;20030;-70
2022/09/06 02:00:21;;;;;;;15.73;12.05;;;;;;;16.37;100.00;101173.75;1970742;28;20045;-70
2022/09/06 02:01:50;;;;;;;15.45;12.45;;;;;;;16.40;100.00;101173.56;1970670;28;20118;-70
2022/09/06 02:03:21;;;;;;;16.65;12.73;;;;;;;16.36;100.00;101172.06;1970697;28;20037;-71
2022/09/06 02:04:32;;;;;;;14.63;11.60;;;;;;;16.36;100.00;101177.31;1970814;28;20409;-73
2022/09/06 02:05:42;;;;;;;17.92;12.88;;;;;;;16.37;100.00;101221.16;1970757;28;20435;-70
2022/09/06 02:06:47;;;;;;;15.32;11.23;;;;;;;16.42;100.00;101263.84;1970803;28;20025;-71
2022/09/06 02:07:49;;;;;;;13.27;11.35;;;;;;;16.50;100.00;101265.16;1970555;28;20042;-70
2022/09/06 02:08:54;;;;;;;12.10;10.90;;;;;;;16.51;100.00;101261.59;1970683;28;20064;-69
2022/09/06 02:09:59;;;;;;;13.50;9.82;;;;;;;16.59;100.00;101252.28;1970634;28;20389;-71
2022/09/06 02:11:03;;;;;;;9.38;7.97;;;;;;;16.81;100.00;101226.38;1970758;28;20018;-73
2022/09/06 02:12:04;;;;;;;9.25;8.35;;;;;;;16.68;100.00;101208.72;1970706;28;20088;-73
2022/09/06 02:13:07;;;;;;;9.40;6.82;;;;;;;16.76;100.00;101210.84;1970724;28;20117;-71
2022/09/06 02:14:14;;;;;;;10.57;7.22;;;;;;;16.73;100.00;101211.91;1970560;28;20033;-72
2022/09/06 02:15:24;;;;;;;8.40;7.07;;;;;;;16.73;100.00;101227.72;1970734;28;20172;-70
2022/09/06 02:16:28;;;;;;;9.90;7.43;;;;;;;16.77;100.00;101224.88;1970535;28;20120;-73
2022/09/06 02:17:33;;;;;;;8.95;6.97;;;;;;;16.76;100.00;101225.84;1970621;28;20566;-72
2022/09/06 02:18:39;;;;;;;8.38;7.50;;;;;;;16.78;100.00;101223.94;1970508;28;20033;-71
2022/09/06 02:19:49;;;;;;;8.82;7.57;;;;;;;16.78;100.00;101221.31;1970700;28;20029;-72
2022/09/06 02:20:53;;;;;;;6.82;6.15;;;;;;;16.72;100.00;101220.75;1970530;28;20052;-71
2022/09/06 02:21:54;;;;;;;9.77;7.65;;;;;;;16.72;100.00;101212.84;1970630;28;20072;-70
2022/09/06 02:22:55;;;;;;;9.00;7.93;;;;;;;16.73;100.00;101217.16;1970637;28;20030;-71
2022/09/06 02:23:56;;;;;;;9.15;7.68;;;;;;;16.71;100.00;101221.72;1970704;28;20374;-71
2022/09/06 02:24:57;;;;;;;12.88;8.20;;;;;;;16.68;100.00;101214.00;1970522;28;20488;-71
2022/09/06 02:26:04;;;;;;;9.48;8.48;;;;;;;16.68;100.00;101224.53;1970748;28;20033;-70
2022/09/06 02:27:02;;;;;;;9.73;8.23;;;;;;;16.66;100.00;101225.56;1970587;28;20440;-71
2022/09/06 02:28:00;;;;;;;9.15;8.15;;;;;;;16.62;100.00;101219.63;1970604;28;20029;-70
2022/09/06 02:28:57;;;;;;;10.32;8.73;;;;;;;16.59;100.00;101223.31;1970483;28;20030;-70
2022/09/06 02:29:55;;;;;;;11.15;8.82;;;;;;;16.56;100.00;101220.03;1970619;28;20397;-70
2022/09/06 02:31:10;;;;;;;10.15;8.98;;;;;;;16.51;100.00;101222.06;1970365;28;20501;-71
2022/09/06 02:32:23;;;;;;;10.48;9.07;;;;;;;16.41;100.00;101217.38;1962132;28;20018;-70
2022/09/06 02:33:27;;;;;;;10.80;9.50;;;;;;;16.38;100.00;101217.56;1953394;28;20030;-71
2022/09/06 02:34:24;;;;;;;10.63;9.18;;;;;;;16.34;100.00;101214.28;1962278;28;20030;-70
2022/09/06 02:35:23;;;;;;;13.05;9.98;;;;;;;16.33;100.00;101211.75;1970537;28;20079;-70
2022/09/06 02:36:20;;;;;;;11.27;10.07;;;;;;;16.31;100.00;101224.16;1970608;28;20034;-69
2022/09/06 02:37:19;;;;;;;11.15;10.02;;;;;;;16.24;100.00;101210.50;1970414;28;20046;-70
2022/09/06 02:38:19;;;;;;;13.30;10.60;;;;;;;16.19;100.00;101208.16;1970514;28;20037;-69
2022/09/06 02:39:17;;;;;;;12.15;10.85;;;;;;;16.15;100.00;101217.16;1970352;28;20028;-70
2022/09/06 02:40:14;;;;;;;12.07;10.73;;;;;;;16.11;100.00;101210.41;1970511;28;20040;-70
2022/09/06 02:41:17;;;;;;;14.52;12.05;;;;;;;16.06;100.00;101208.06;1970366;28;20026;-70
2022/09/06 02:42:16;;;;;;;14.65;11.60;;;;;;;16.05;100.00;101208.16;1962123;28;20034;-70
2022/09/06 02:43:13;;;;;;;15.13;11.27;;;;;;;16.05;100.00;101205.53;1962100;28;20034;-70
2022/09/06 02:44:11;;;;;;;15.30;11.85;;;;;;;16.03;100.00;101207.38;1969929;28;20030;-69
2022/09/06 02:45:09;;;;;;;19.08;12.65;;;;;;;16.01;100.00;101207.47;1962046;28;20041;-69
2022/09/06 02:46:06;;;;;;;17.58;12.60;;;;;;;15.99;100.00;101212.00;1962076;28;20083;-70
2022/09/06 02:47:04;;;;;;;13.60;12.20;;;;;;;15.95;100.00;101215.75;1969552;28;20091;-70
2022/09/06 02:48:02;;;;;;;15.20;12.23;;;;;;;15.93;100.00;101222.84;1962124;28;20022;-69
2022/09/06 02:48:59;;;;;;;17.95;12.68;;;;;;;15.93;100.00;101223.72;1962152;28;20050;-70
2022/09/06 02:49:57;;;;;;;16.60;12.45;;;;;;;15.91;100.00;101215.03;1969682;28;20143;-70
2022/09/06 02:50:54;;;;;;;16.55;13.20;;;;;;;15.91;100.00;101224.75;1970390;28;20013;-70
2022/09/06 02:51:51;;;;;;;15.60;12.48;;;;;;;15.90;100.00;101218.63;1970364;28;20045;-70
2022/09/06 02:53:11;;;;;;;15.88;13.25;;;;;;;15.87;100.00;101213.53;1970570;28;20013;-70
2022/09/06 02:54:09;;;;;;;15.75;12.27;;;;;;;15.85;100.00;101218.06;1970316;28;20048;-70
2022/09/06 02:55:06;;;;;;;16.35;12.93;;;;;;;15.86;100.00;101219.72;1970268;28;20026;-69
2022/09/06 02:56:04;;;;;;;18.10;13.43;;;;;;;15.88;100.00;101225.75;1970332;28;20477;-70
2022/09/06 02:57:02;;;;;;;17.60;13.15;;;;;;;15.86;100.00;101232.91;1970327;28;20607;-70
2022/09/06 02:57:59;;;;;;;18.33;14.18;;;;;;;15.88;100.00;101228.38;1969694;28;20037;-69
2022/09/06 02:58:57;;;;;;;17.88;13.45;;;;;;;15.89;100.00;101230.09;1970364;28;20105;-70
2022/09/06 02:59:54;;;;;;;18.35;13.43;;;;;;;15.91;100.00;101230.84;1970338;28;20032;-70
2022/09/06 03:00:52;;;;;;;17.98;13.70;;;;;;;15.89;100.00;101226.59;1970268;28;20030;-69
2022/09/06 03:01:50;;;;;;;21.05;14.77;;;;;;;15.90;100.00;101228.28;1970029;28;20096;-70
2022/09/06 03:02:47;;;;;;;19.67;14.50;;;;;;;15.89;100.00;101237.97;1970244;28;20041;-70
2022/09/06 03:03:45;;;;;;;20.52;14.10;;;;;;;15.89;100.00;101234.50;1967899;28;20473;-70
2022/09/06 03:04:42;;;;;;;18.92;14.02;;;;;;;15.90;100.00;101238.81;1970377;28;20033;-70
2022/09/06 03:05:39;;;;;;;18.35;14.35;;;;;;;15.93;100.00;101238.63;1962046;28;20049;-70
2022/09/06 03:06:37;;;;;;;22.38;14.32;;;;;;;15.93;100.00;101239.50;1962043;28;20029;-70
2022/09/06 03:07:34;;;;;;;19.80;14.32;;;;;;;15.93;100.00;101239.50;1969348;28;20038;-70
2022/09/06 03:08:33;;;;;;;17.50;14.52;;;;;;;15.92;100.00;101232.53;1970353;28;20139;-70
2022/09/06 03:09:30;;;;;;;19.88;14.45;;;;;;;15.93;100.00;101238.63;1970281;28;20021;-70
2022/09/06 03:10:27;;;;;;;18.23;14.45;;;;;;;15.92;100.00;101240.44;1970259;28;20032;-70
2022/09/06 03:11:26;;;;;;;19.20;14.55;;;;;;;15.90;100.00;101237.03;1962002;28;20030;-70
2022/09/06 03:12:23;;;;;;;20.33;15.50;;;;;;;15.93;100.00;101236.88;1961948;28;20034;-70
2022/09/06 03:13:22;;;;;;;18.33;14.75;;;;;;;15.91;100.00;101241.34;1969503;28;20029;-70
2022/09/06 03:14:20;;;;;;;20.35;15.05;;;;;;;15.94;100.00;101237.69;1961830;28;20084;-70
2022/09/06 03:15:18;;;;;;;19.95;14.93;;;;;;;15.92;100.00;101237.81;1962059;28;20441;-70
2022/09/06 03:16:15;;;;;;;17.02;14.52;;;;;;;15.93;100.00;101231.59;1969259;28;20389;-69
2022/09/06 03:17:13;;;;;;;21.40;15.10;;;;;;;15.94;100.00;101235.06;1970205;28;20033;-70
2022/09/06 03:18:10;;;;;;;21.55;14.77;;;;;;;15.93;100.00;101226.34;1970165;28;20037;-70
2022/09/06 03:19:07;;;;;;;21.88;14.63;;;;;;;15.93;100.00;101228.97;1970194;28;20037;-69
2022/09/06 03:20:08;;;;;;;20.10;14.93;;;;;;;15.91;100.00;101224.75;1970093;28;20025;-70
2022/09/06 03:21:05;;;;;;;17.73;14.57;;;;;;;15.93;100.00;101233.38;1970054;28;20048;-69
2022/09/06 03:22:03;;;;;;;19.13;14.65;;;;;;;15.91;100.00;101228.19;1970173;28;20030;-69
2022/09/06 03:23:00;;;;;;;18.02;15.32;;;;;;;15.90;100.00;101223.88;1970121;28;20028;-70
2022/09/06 03:23:58;;;;;;;19.88;15.60;;;;;;;15.87;100.00;101224.06;1961823;28;20033;-70
2022/09/06 03:24:56;;;;;;;21.70;15.27;;;;;;;15.87;100.00;101223.22;1961736;28;20569;-70
2022/09/06 03:25:54;;;;;;;20.00;15.48;;;;;;;15.87;100.00;101223.22;1961873;28;20037;-69
2022/09/06 03:26:51;;;;;;;19.90;15.18;;;;;;;15.85;100.00;101225.94;1969526;28;20026;-70
2022/09/06 03:27:48;;;;;;;21.63;16.15;;;;;;;15.84;100.00;101229.50;1970170;28;20057;-69
2022/09/06 03:28:46;;;;;;;21.10;15.80;;;;;;;15.84;100.00;101229.50;1970074;28;20022;-70
2022/09/06 03:29:43;;;;;;;18.65;14.95;;;;;;;15.82;100.00;101237.50;1970097;28;20041;-69
2022/09/06 03:30:44;;;;;;;24.17;15.90;;;;;;;15.80;100.00;101238.50;1961763;28;20022;-69
2022/09/06 03:31:42;;;;;;;25.10;15.80;;;;;;;15.79;100.00;101234.19;1961823;28;20106;-70
2022/09/06 03:32:39;;;;;;;20.40;15.40;;;;;;;15.77;100.00;101231.63;1969744;28;20082;-70
2022/09/06 03:33:37;;;;;;;21.90;16.00;;;;;;;15.75;100.00;101233.53;1967673;28;20474;-70
2022/09/06 03:34:34;;;;;;;23.92;16.38;;;;;;;15.76;100.00;101231.72;1970105;28;20381;-70
2022/09/06 03:35:31;;;;;;;24.75;16.20;;;;;;;15.74;100.00;101238.88;1970098;28;20509;-69
2022/09/06 03:36:29;;;;;;;22.92;15.93;;;;;;;15.72;100.00;101236.34;1970114;28;20043;-70
2022/09/06 03:37:27;;;;;;;22.88;16.45;;;;;;;15.71;100.00;101234.66;1970081;28;20109;-70
2022/09/06 03:38:26;;;;;;;22.35;16.23;;;;;;;15.71;100.00;101239.91;1970111;28;20036;-70
2022/09/06 03:39:23;;;;;;;25.52;17.20;;;;;;;15.69;100.00;101234.72;1969778;28;20046;-70
2022/09/06 03:40:21;;;;;;;27.17;17.30;;;;;;;15.69;100.00;101232.09;1969926;28;20458;-71
2022/09/06 03:41:19;;;;;;;25.00;17.30;;;;;;;15.66;100.00;101232.28;1970097;28;20033;-70
2022/09/06 03:42:16;;;;;;;21.98;16.63;;;;;;;15.65;100.00;101224.47;1961676;28;20037;-70
2022/09/06 03:43:16;;;;;;;26.40;17.38;;;;;;;15.67;100.00;101223.44;1961977;28;20026;-71
2022/09/06 03:44:13;;;;;;;24.42;16.88;;;;;;;15.64;100.00;101218.34;1961103;28;20714;-70
2022/09/06 03:45:11;;;;;;;26.92;17.17;;;;;;;15.64;100.00;101222.78;1961737;28;20030;-71
2022/09/06 03:46:09;;;;;;;25.92;16.83;;;;;;;15.63;100.00;101227.19;1969058;28;20025;-70
2022/09/06 03:47:06;;;;;;;24.02;17.05;;;;;;;15.63;100.00;101224.56;1970081;28;20462;-70
2022/09/06 03:48:03;;;;;;;24.88;17.45;;;;;;;15.66;100.00;101232.28;1969866;28;20018;-71
2022/09/06 03:49:01;;;;;;;25.55;17.20;;;;;;;15.64;100.00;101234.13;1970166;28;20056;-71
2022/09/06 03:49:58;;;;;;;23.35;17.05;;;;;;;15.62;100.00;101228.13;1969872;28;20417;-70
2022/09/06 03:50:58;;;;;;;25.17;17.77;;;;;;;15.65;100.00;101230.59;1969923;28;20048;-71
2022/09/06 03:51:55;;;;;;;25.80;17.70;;;;;;;15.61;100.00;101226.44;1969911;28;20030;-71
2022/09/06 03:52:53;;;;;;;26.42;17.73;;;;;;;15.62;100.00;101230.75;1969914;28;20056;-70
2022/09/06 03:53:50;;;;;;;25.05;17.92;;;;;;;15.60;100.00;101235.25;1969867;28;20032;-71
2022/09/06 03:54:47;;;;;;;28.05;18.67;;;;;;;15.58;100.00;101224.81;1969879;28;20050;-70
2022/09/06 03:55:47;;;;;;;28.33;18.35;;;;;;;15.58;100.00;101230.06;1970059;28;20032;-70
2022/09/06 03:56:45;;;;;;;24.27;17.50;;;;;;;15.60;100.00;101226.53;1961528;28;20033;-71
2022/09/06 03:57:42;;;;;;;27.95;17.63;;;;;;;15.61;100.00;101223.81;1961708;28;20361;-70
2022/09/06 03:58:39;;;;;;;26.70;17.20;;;;;;;15.58;100.00;101223.97;1968950;28;20029;-71
2022/09/06 03:59:37;;;;;;;26.73;18.75;;;;;;;15.57;100.00;101227.56;1969905;28;20478;-71
2022/09/06 04:00:34;;;;;;;25.13;17.98;;;;;;;15.57;100.00;101238.06;1969699;28;20109;-71
2022/09/06 04:01:32;;;;;;;28.02;18.98;;;;;;;15.57;100.00;101243.34;1961523;28;20527;-71
2022/09/06 04:02:29;;;;;;;27.23;18.55;;;;;;;15.53;100.00;101233.94;1961413;28;20093;-70
2022/09/06 04:03:26;;;;;;;29.10;19.85;;;;;;;15.53;100.00;101236.56;1966713;28;20379;-71
2022/09/06 04:04:24;;;;;;;28.88;19.90;;;;;;;15.50;100.00;101236.72;1961470;28;20043;-70
2022/09/06 04:05:21;;;;;;;30.67;19.83;;;;;;;15.51;100.00;101233.16;1961789;28;20030;-71
2022/09/06 04:06:19;;;;;;;31.50;20.27;;;;;;;15.64;100.00;101231.50;1969003;28;20029;-71
2022/09/06 04:07:16;;;;;;;30.65;20.27;;;;;;;15.61;100.00;101229.06;1961516;28;20048;-71
2022/09/06 04:08:13;;;;;;;31.88;19.98;;;;;;;15.59;100.00;101238.81;1961549;28;20058;-71
2022/09/06 04:09:11;;;;;;;28.08;19.77;;;;;;;15.58;100.00;101234.50;1968594;28;20072;-71
2022/09/06 04:10:08;;;;;;;29.33;19.23;;;;;;;15.57;100.00;101236.28;1960896;28;20033;-72
2022/09/06 04:11:06;;;;;;;27.70;19.13;;;;;;;15.58;100.00;101239.75;1961513;28;20028;-71
2022/09/06 04:12:03;;;;;;;32.45;20.52;;;;;;;15.58;100.00;101239.75;1969008;28;20395;-71
2022/09/06 04:13:01;;;;;;;29.98;20.45;;;;;;;15.56;100.00;101237.22;1969820;28;20448;-71
2022/09/06 04:13:58;;;;;;;31.88;20.33;;;;;;;15.57;100.00;101235.44;1969832;28;20033;-70
2022/09/06 04:14:55;;;;;;;29.27;19.85;;;;;;;15.55;100.00;101243.44;1969781;28;20095;-71
2022/09/06 04:15:53;;;;;;;28.73;19.85;;;;;;;15.53;100.00;101241.81;1969735;28;20025;-71
2022/09/06 04:16:51;;;;;;;25.42;20.30;;;;;;;15.55;100.00;101248.69;1969695;28;20052;-71
2022/09/06 04:17:48;;;;;;;24.00;19.33;;;;;;;15.56;100.00;101252.13;1969770;28;20045;-71
2022/09/06 04:18:45;;;;;;;26.00;19.55;;;;;;;15.55;100.00;101255.72;1969687;28;20051;-71
2022/09/06 04:19:43;;;;;;;25.13;19.45;;;;;;;15.54;100.00;101254.84;1969783;28;20477;-71
2022/09/06 04:20:40;;;;;;;24.50;19.48;;;;;;;15.54;100.00;101251.41;1969654;28;20123;-71
2022/09/06 04:21:38;;;;;;;26.15;19.13;;;;;;;15.53;100.00;101252.34;1969674;28;20466;-71
2022/09/06 04:22:35;;;;;;;25.20;18.85;;;;;;;15.52;100.00;101250.63;1961464;28;20113;-71
2022/09/06 04:23:33;;;;;;;25.83;18.83;;;;;;;15.54;100.00;101254.03;1961391;28;20025;-71
2022/09/06 04:24:30;;;;;;;25.30;18.70;;;;;;;15.50;100.00;101257.78;1968838;28;20123;-71
2022/09/06 04:25:27;;;;;;;23.83;18.10;;;;;;;15.50;100.00;101252.50;1969712;28;20026;-71
2022/09/06 04:26:25;;;;;;;22.38;17.52;;;;;;;15.47;100.00;101253.53;1969796;28;20061;-71
2022/09/06 04:27:22;;;;;;;25.38;18.45;;;;;;;15.47;100.00;101250.06;1969661;28;20042;-72
2022/09/06 04:28:21;;;;;;;21.08;17.35;;;;;;;15.43;100.00;101255.47;1969783;28;20491;-71
2022/09/06 04:29:18;;;;;;;23.58;18.60;;;;;;;15.43;100.00;101258.09;1969688;28;20397;-71
2022/09/06 04:30:16;;;;;;;22.15;17.42;;;;;;;15.42;100.00;101261.69;1969725;28;20018;-72
2022/09/06 04:31:13;;;;;;;25.40;17.80;;;;;;;15.40;100.00;101255.63;1961299;28;20018;-71
2022/09/06 04:32:11;;;;;;;21.30;17.20;;;;;;;15.38;100.00;101254.91;1961398;28;20031;-72
2022/09/06 04:33:08;;;;;;;21.42;17.50;;;;;;;15.41;100.00;101257.38;1966379;28;20466;-71
2022/09/06 04:34:05;;;;;;;22.02;17.02;;;;;;;15.41;100.00;101252.09;1969605;28;20026;-72
2022/09/06 04:35:03;;;;;;;24.20;17.27;;;;;;;15.40;100.00;101250.38;1969717;28;20109;-72
2022/09/06 04:36:05;;;;;;;21.92;17.55;;;;;;;15.40;100.00;101253.00;1969593;28;20037;-72
2022/09/06 04:37:02;;;;;;;22.13;17.52;;;;;;;15.38;100.00;101249.63;1969749;28;20041;-72
2022/09/06 04:38:00;;;;;;;23.85;17.15;;;;;;;15.37;100.00;101252.34;1969582;28;20056;-72
2022/09/06 04:38:58;;;;;;;22.20;17.42;;;;;;;15.37;100.00;101249.72;1969716;28;20105;-72
2022/09/06 04:39:55;;;;;;;23.80;17.25;;;;;;;15.35;100.00;101248.94;1969600;28;20026;-71
2022/09/06 04:40:54;;;;;;;22.35;17.50;;;;;;;15.36;100.00;101255.91;1969637;28;20393;-71
2022/09/06 04:41:51;;;;;;;24.50;17.35;;;;;;;15.34;100.00;101247.25;1969621;28;20084;-71